createdAt,value
2018-08-10T00:02:06.211Z,2.40
2018-08-10T00:04:35.939Z,2.83
2018-08-10T00:07:05.670Z,2.92
2018-08-10T00:09:35.364Z,3.15
2018-08-10T00:12:05.100Z,2.80
2018-08-10T00:14:34.954Z,2.70
2018-08-10T00:17:04.607Z,2.95
2018-08-10T00:19:34.339Z,3.10
2018-08-10T00:22:04.357Z,2.98
2018-08-10T00:24:34.390Z,3.10
2018-08-10T00:27:04.506Z,2.45
2018-08-10T00:29:34.186Z,2.10
2018-08-10T00:32:03.949Z,2.00
2018-08-10T00:34:33.627Z,2.00
2018-08-10T00:37:03.323Z,1.82
2018-08-10T00:39:32.988Z,1.60
2018-08-10T00:42:02.695Z,1.35
2018-08-10T00:44:32.371Z,1.40
2018-08-10T00:47:02.068Z,1.30
2018-08-10T00:49:31.710Z,1.22
2018-08-10T00:52:01.727Z,1.15
2018-08-10T00:54:31.375Z,1.00
2018-08-10T00:57:01.409Z,1.20
2018-08-10T00:59:31.070Z,1.10
2018-08-10T01:02:00.710Z,1.12
2018-08-10T01:04:30.758Z,1.17
2018-08-10T01:07:00.394Z,1.07
2018-08-10T01:09:30.068Z,1.25
2018-08-10T01:12:00.099Z,1.07
2018-08-10T01:14:29.758Z,0.90
2018-08-10T01:16:59.505Z,1.20
2018-08-10T01:19:29.275Z,1.30
2018-08-10T01:21:59.079Z,0.90
2018-08-10T01:24:28.762Z,1.07
2018-08-10T01:26:58.483Z,1.10
2018-08-10T01:29:28.473Z,1.10
2018-08-10T01:31:58.490Z,1.12
2018-08-10T01:34:28.139Z,1.00
2018-08-10T01:36:57.787Z,0.53
2018-08-10T01:39:27.483Z,1.10
2018-08-10T01:41:57.447Z,0.82
2018-08-10T01:44:27.495Z,0.82
2018-08-10T01:46:57.531Z,1.10
2018-08-10T01:49:27.275Z,0.80
2018-08-10T01:51:56.979Z,0.70
2018-08-10T01:54:27.042Z,0.98
2018-08-10T01:56:57.088Z,1.00
2018-08-10T01:59:27.148Z,1.10
2018-08-10T02:01:56.856Z,0.98
2018-08-10T02:04:26.585Z,0.85
2018-08-10T02:06:56.316Z,0.95
2018-08-10T02:09:26.326Z,0.90
2018-08-10T02:11:56.391Z,1.17
2018-08-10T02:14:26.403Z,0.80
2018-08-10T02:16:56.166Z,0.80
2018-08-10T02:19:25.882Z,0.50
2018-08-10T02:21:55.795Z,0.75
2018-08-10T02:24:25.512Z,0.40
2018-08-10T02:26:55.216Z,0.45
2018-08-10T02:29:25.217Z,0.50
2018-08-10T02:31:55.355Z,0.50
2018-08-10T02:34:25.167Z,0.80
2018-08-10T02:36:55.219Z,0.50
2018-08-10T02:39:24.887Z,0.60
2018-08-10T02:41:54.588Z,0.40
2018-08-10T02:44:24.283Z,0.57
2018-08-10T02:46:54.002Z,0.50
2018-08-10T02:49:23.663Z,0.60
2018-08-10T02:51:53.355Z,0.40
2018-08-10T02:54:23.034Z,0.50
2018-08-10T02:56:52.748Z,0.50
2018-08-10T02:59:22.420Z,0.37
2018-08-10T03:01:52.103Z,0.30
2018-08-10T03:04:21.868Z,0.50
2018-08-10T03:06:51.556Z,0.55
2018-08-10T03:09:21.192Z,0.70
2018-08-10T03:11:50.872Z,0.30
2018-08-10T03:14:20.538Z,0.62
2018-08-10T03:16:50.292Z,0.53
2018-08-10T03:19:20.314Z,0.50
2018-08-10T03:21:50.334Z,0.47
2018-08-10T03:24:20.154Z,0.70
2018-08-10T03:26:49.972Z,0.30
2018-08-10T03:29:20.032Z,0.40
2018-08-10T03:31:49.706Z,0.57
2018-08-10T03:34:19.383Z,0.40
2018-08-10T03:36:49.074Z,0.50
2018-08-10T03:39:18.799Z,0.50
2018-08-10T03:41:48.478Z,0.35
2018-08-10T03:44:18.163Z,0.30
2018-08-10T03:46:47.855Z,0.37
2018-08-10T03:49:17.901Z,0.45
2018-08-10T03:51:47.710Z,0.30
2018-08-10T03:54:17.379Z,0.28
2018-08-10T03:56:47.026Z,0.40
2018-08-10T03:59:16.923Z,0.40
2018-08-10T04:01:46.582Z,0.40
2018-08-10T04:04:16.207Z,0.30
2018-08-10T04:06:45.939Z,0.30
2018-08-10T04:09:15.571Z,0.20
2018-08-10T04:11:45.258Z,0.45
2018-08-10T04:14:14.903Z,0.25
2018-08-10T04:16:44.934Z,0.40
2018-08-10T04:19:14.619Z,0.30
2018-08-10T04:21:44.626Z,0.10
2018-08-10T04:24:14.259Z,0.30
2018-08-10T04:26:43.915Z,0.13
2018-08-10T04:29:13.543Z,0.55
2018-08-10T04:31:43.194Z,0.40
2018-08-10T04:34:12.843Z,0.20
2018-08-10T04:36:42.680Z,0.33
2018-08-10T04:39:13.610Z,0.40
2018-08-10T04:41:43.538Z,0.28
2018-08-10T04:44:13.195Z,0.30
2018-08-10T04:46:42.851Z,0.20
2018-08-10T04:49:12.530Z,0.37
2018-08-10T04:51:42.203Z,0.50
2018-08-10T04:54:11.851Z,0.47
2018-08-10T04:56:41.879Z,0.40
2018-08-10T04:59:11.643Z,0.40
2018-08-10T05:01:41.941Z,0.30
2018-08-10T05:04:11.653Z,0.50
2018-08-10T05:06:41.359Z,0.30
2018-08-10T05:09:12.678Z,0.40
2018-08-10T05:11:43.919Z,0.30
2018-08-10T05:14:13.632Z,0.33
2018-08-10T05:16:43.370Z,0.30
2018-08-10T05:19:13.415Z,0.20
2018-08-10T05:21:43.099Z,0.35
2018-08-10T05:24:12.774Z,0.42
2018-08-10T05:26:42.468Z,1.10
2018-08-10T05:29:12.471Z,0.50
2018-08-10T05:31:42.151Z,0.50
2018-08-10T05:34:12.095Z,0.33
2018-08-10T05:36:42.147Z,0.20
2018-08-10T05:39:12.600Z,0.50
2018-08-10T05:41:42.278Z,0.30
2018-08-10T05:44:12.192Z,0.40
2018-08-10T05:46:41.985Z,0.60
2018-08-10T05:49:11.847Z,0.42
2018-08-10T05:51:41.578Z,0.60
2018-08-10T05:54:11.265Z,0.40
2018-08-10T05:56:40.931Z,0.30
2018-08-10T05:59:10.615Z,0.65
2018-08-10T06:01:40.270Z,0.60
2018-08-10T06:04:10.381Z,0.65
2018-08-10T06:06:40.227Z,0.62
2018-08-10T06:09:12.878Z,0.68
2018-08-10T06:11:43.547Z,0.60
2018-08-10T06:14:14.655Z,0.60
2018-08-10T06:16:44.555Z,0.65
2018-08-10T06:19:14.275Z,0.72
2018-08-10T06:21:44.030Z,0.53
2018-08-10T06:24:13.867Z,0.30
2018-08-10T06:26:43.834Z,0.62
2018-08-10T06:29:14.371Z,0.68
2018-08-10T06:31:44.096Z,0.40
2018-08-10T06:34:13.852Z,0.40
2018-08-10T06:36:43.678Z,0.70
2018-08-10T06:39:13.419Z,0.45
2018-08-10T06:41:43.087Z,0.50
2018-08-10T06:44:12.770Z,0.60
2018-08-10T06:46:42.570Z,0.50
2018-08-10T06:49:12.590Z,0.70
2018-08-10T06:51:42.303Z,0.53
2018-08-10T06:54:12.098Z,0.60
2018-08-10T06:56:41.745Z,0.60
2018-08-10T06:59:11.391Z,0.70
2018-08-10T07:01:41.124Z,0.60
2018-08-10T07:04:10.925Z,0.70
2018-08-10T07:06:40.634Z,0.60
2018-08-10T07:09:12.089Z,0.95
2018-08-10T07:11:41.938Z,0.70
2018-08-10T07:14:11.637Z,0.70
2018-08-10T07:16:41.698Z,0.50
2018-08-10T07:19:11.339Z,0.68
2018-08-10T07:21:41.063Z,0.70
2018-08-10T07:24:11.060Z,0.65
2018-08-10T07:26:40.738Z,0.68
2018-08-10T07:29:10.393Z,0.53
2018-08-10T07:31:40.058Z,0.37
2018-08-10T07:34:09.675Z,0.60
2018-08-10T07:36:39.363Z,0.53
2018-08-10T07:39:11.033Z,0.72
2018-08-10T07:41:41.368Z,0.40
2018-08-10T07:44:11.016Z,0.65
2018-08-10T07:46:40.734Z,0.65
2018-08-10T07:49:10.375Z,0.70
2018-08-10T07:51:40.082Z,0.60
2018-08-10T07:54:09.759Z,0.55
2018-08-10T07:56:39.434Z,1.22
2018-08-10T07:59:09.214Z,1.00
2018-08-10T08:01:39.031Z,0.72
2018-08-10T08:04:09.470Z,0.47
2018-08-10T08:06:39.167Z,0.45
2018-08-10T08:09:10.903Z,0.62
2018-08-10T08:11:40.594Z,0.40
2018-08-10T08:14:10.688Z,0.50
2018-08-10T08:16:40.683Z,0.37
2018-08-10T08:19:10.325Z,0.50
2018-08-10T08:22:14.081Z,0.40
2018-08-10T08:24:43.982Z,0.53
2018-08-10T08:27:14.975Z,0.50
2018-08-10T08:29:45.694Z,0.50
2018-08-10T08:32:18.989Z,0.30
2018-08-10T08:34:48.998Z,0.40
2018-08-10T08:37:18.813Z,0.40
2018-08-10T08:40:26.375Z,0.40
2018-08-10T08:42:56.031Z,0.72
2018-08-10T08:45:59.061Z,0.62
2018-08-10T08:48:30.229Z,0.40
2018-08-10T08:51:02.403Z,0.50
2018-08-10T08:53:32.115Z,0.55
2018-08-10T08:56:06.222Z,0.53
2018-08-10T08:58:36.643Z,0.40
2018-08-10T09:01:07.590Z,0.45
2018-08-10T09:03:49.202Z,0.50
2018-08-10T09:06:19.707Z,0.50
2018-08-10T09:09:00.812Z,0.40
2018-08-10T09:11:30.559Z,0.30
2018-08-10T09:15:04.483Z,0.40
2018-08-10T09:17:34.657Z,0.57
2018-08-10T09:20:07.776Z,0.40
2018-08-10T09:22:38.367Z,0.40
2018-08-10T09:25:09.568Z,0.40
2018-08-10T09:27:39.655Z,0.60
2018-08-10T09:30:13.344Z,0.50
2018-08-10T09:32:47.855Z,0.50
2018-08-10T09:35:18.411Z,0.33
2018-08-10T09:37:48.085Z,0.25
2018-08-10T09:40:19.318Z,0.55
2018-08-10T09:42:50.458Z,0.40
2018-08-10T09:45:26.203Z,0.55
2018-08-10T09:47:55.986Z,1.25
2018-08-10T09:50:25.659Z,0.40
2018-08-10T09:52:57.804Z,0.50
2018-08-10T09:55:31.219Z,0.30
2018-08-10T09:58:05.368Z,0.47
2018-08-10T10:00:42.427Z,0.20
2018-08-10T10:03:16.720Z,0.30
2018-08-10T10:05:47.111Z,0.47
2018-08-10T10:08:17.262Z,0.40
2018-08-10T10:10:47.544Z,0.40
2018-08-10T10:13:17.271Z,0.35
2018-08-10T10:15:47.307Z,0.40
2018-08-10T10:18:26.448Z,0.40
2018-08-10T10:20:56.433Z,0.30
2018-08-10T10:23:28.421Z,0.30
2018-08-10T10:26:02.132Z,0.45
2018-08-10T10:28:36.359Z,0.40
2018-08-10T10:31:06.367Z,0.30
2018-08-10T10:33:36.382Z,0.40
2018-08-10T10:36:06.034Z,0.50
2018-08-10T10:38:40.847Z,0.30
2018-08-10T10:41:12.203Z,0.55
2018-08-10T10:43:41.875Z,0.40
2018-08-10T10:46:11.723Z,0.40
2018-08-10T10:48:41.746Z,0.50
2018-08-10T10:51:12.676Z,0.72
2018-08-10T10:53:43.764Z,0.50
2018-08-10T10:56:13.534Z,0.50
2018-08-10T10:58:43.406Z,0.40
2018-08-10T11:01:13.046Z,0.50
2018-08-10T11:03:46.677Z,0.33
2018-08-10T11:06:23.934Z,0.30
2018-08-10T11:08:54.349Z,0.33
2018-08-10T11:11:24.003Z,0.28
2018-08-10T11:13:53.987Z,0.20
2018-08-10T11:16:26.866Z,0.55
2018-08-10T11:18:57.479Z,0.20
2018-08-10T11:21:28.301Z,0.30
2018-08-10T11:23:58.229Z,0.40
2018-08-10T11:26:28.432Z,0.25
2018-08-10T11:28:58.242Z,0.50
2018-08-10T11:31:28.007Z,0.30
2018-08-10T11:33:57.951Z,0.40
2018-08-10T11:36:27.665Z,0.20
2018-08-10T11:38:57.659Z,0.45
2018-08-10T11:41:27.385Z,0.45
2018-08-10T11:43:57.560Z,0.30
2018-08-10T11:46:27.216Z,0.30
2018-08-10T11:48:57.978Z,0.30
2018-08-10T11:51:28.031Z,0.28
2018-08-10T11:53:58.051Z,0.42
2018-08-10T11:56:27.731Z,0.40
2018-08-10T11:58:57.451Z,0.47
2018-08-10T12:01:27.147Z,0.40
2018-08-10T12:03:58.505Z,0.40
2018-08-10T12:06:29.331Z,0.45
2018-08-10T12:08:59.455Z,0.30
2018-08-10T12:11:31.206Z,0.50
2018-08-10T12:14:01.663Z,0.50
2018-08-10T12:16:31.711Z,0.65
2018-08-10T12:19:01.860Z,0.45
2018-08-10T12:21:33.350Z,0.53
2018-08-10T12:24:03.423Z,0.40
2018-08-10T12:26:33.091Z,0.28
2018-08-10T12:29:02.788Z,0.25
2018-08-10T12:31:32.507Z,0.40
2018-08-10T12:34:04.159Z,0.30
2018-08-10T12:36:35.687Z,1.12
2018-08-10T12:39:10.425Z,0.30
2018-08-10T12:41:40.303Z,0.75
2018-08-10T12:44:10.044Z,0.60
2018-08-10T12:46:39.815Z,0.40
2018-08-10T12:49:09.743Z,0.28
2018-08-10T12:51:39.412Z,0.60
2018-08-10T12:54:09.119Z,0.40
2018-08-10T12:56:38.822Z,0.47
2018-08-10T12:59:09.357Z,0.23
2018-08-10T13:01:39.546Z,0.40
2018-08-10T13:04:09.178Z,0.47
2018-08-10T13:06:38.888Z,0.28
2018-08-10T13:09:11.298Z,0.60
2018-08-10T13:11:41.159Z,0.40
2018-08-10T13:14:11.129Z,0.30
2018-08-10T13:16:40.829Z,0.30
2018-08-10T13:19:10.789Z,0.50
2018-08-10T13:21:41.160Z,0.60
2018-08-10T13:24:11.549Z,0.50
2018-08-10T13:26:41.300Z,0.50
2018-08-10T13:29:11.683Z,0.40
2018-08-10T13:31:45.181Z,0.30
2018-08-10T13:34:15.929Z,0.50
2018-08-10T13:36:45.646Z,0.37
2018-08-10T13:39:15.327Z,0.40
2018-08-10T13:41:45.829Z,0.40
2018-08-10T13:44:15.678Z,0.78
2018-08-10T13:46:45.518Z,0.42
2018-08-10T13:49:15.241Z,0.45
2018-08-10T13:51:44.974Z,0.60
2018-08-10T13:54:14.711Z,0.40
2018-08-10T13:56:45.242Z,0.30
2018-08-10T13:59:15.707Z,0.40
2018-08-10T14:01:46.079Z,0.42
2018-08-10T14:04:16.928Z,0.80
2018-08-10T14:06:47.038Z,0.40
2018-08-10T14:09:16.873Z,0.60
2018-08-10T14:11:46.607Z,0.42
2018-08-10T14:14:16.712Z,0.40
2018-08-10T14:16:46.698Z,0.45
2018-08-10T14:19:16.499Z,0.40
2018-08-10T14:21:48.407Z,0.60
2018-08-10T14:24:18.663Z,0.55
2018-08-10T14:26:48.998Z,0.50
2018-08-10T14:29:18.749Z,0.40
2018-08-10T14:31:48.943Z,0.37
2018-08-10T14:34:18.734Z,0.33
2018-08-10T14:36:48.819Z,0.30
2018-08-10T14:39:18.550Z,0.40
2018-08-10T14:41:48.330Z,0.42
2018-08-10T14:44:18.207Z,0.60
2018-08-10T14:46:48.218Z,0.40
2018-08-10T14:49:18.210Z,0.42
2018-08-10T14:51:48.031Z,0.50
2018-08-10T14:54:18.013Z,0.60
2018-08-10T14:56:48.178Z,0.60
2018-08-10T14:59:18.486Z,0.35
2018-08-10T15:01:48.330Z,0.40
2018-08-10T15:04:18.516Z,0.50
2018-08-10T15:06:48.742Z,0.60
2018-08-10T15:09:18.592Z,0.60
2018-08-10T15:11:48.412Z,0.30
2018-08-10T15:14:18.258Z,0.55
2018-08-10T15:16:48.368Z,0.50
2018-08-10T15:19:18.109Z,0.45
2018-08-10T15:21:47.895Z,0.90
2018-08-10T15:24:17.938Z,0.50
2018-08-10T15:26:47.699Z,0.42
2018-08-10T15:29:17.465Z,0.40
2018-08-10T15:31:47.288Z,0.40
2018-08-10T15:34:17.375Z,0.57
2018-08-10T15:36:47.457Z,0.60
2018-08-10T15:39:17.908Z,0.55
2018-08-10T15:41:47.638Z,0.50
2018-08-10T15:44:17.374Z,0.40
2018-08-10T15:46:49.091Z,0.40
2018-08-10T15:49:19.661Z,0.50
2018-08-10T15:51:49.562Z,0.50
2018-08-10T15:54:19.415Z,0.40
2018-08-10T15:56:49.774Z,0.50
2018-08-10T15:59:19.475Z,0.57
2018-08-10T16:01:49.232Z,0.50
2018-08-10T16:04:19.361Z,0.30
2018-08-10T16:06:49.095Z,0.47
2018-08-10T16:09:18.835Z,0.50
2018-08-10T16:11:48.567Z,0.28
2018-08-10T16:14:18.314Z,0.55
2018-08-10T16:16:48.415Z,0.50
2018-08-10T16:19:18.442Z,0.40
2018-08-10T16:21:48.195Z,0.60
2018-08-10T16:24:17.994Z,0.40
2018-08-10T16:26:47.671Z,0.57
2018-08-10T16:29:17.806Z,0.50
2018-08-10T16:31:47.912Z,0.60
2018-08-10T16:34:17.666Z,0.50
2018-08-10T16:36:47.407Z,0.42
2018-08-10T16:39:17.224Z,0.50
2018-08-10T16:41:46.974Z,0.50
2018-08-10T16:44:16.654Z,0.53
2018-08-10T16:46:46.663Z,2.70
2018-08-10T16:49:16.399Z,1.35
2018-08-10T16:51:46.050Z,0.45
2018-08-10T16:54:15.719Z,0.47
2018-08-10T16:56:45.447Z,0.50
2018-08-10T16:59:15.233Z,0.50
2018-08-10T17:01:45.264Z,0.50
2018-08-10T17:04:15.018Z,0.30
2018-08-10T17:06:44.723Z,0.40
2018-08-10T17:09:14.403Z,0.62
2018-08-10T17:11:44.147Z,0.35
2018-08-10T17:14:13.855Z,1.00
2018-08-10T17:16:44.996Z,0.70
2018-08-10T17:19:15.015Z,0.60
2018-08-10T17:21:45.104Z,0.93
2018-08-10T17:24:14.787Z,0.60
2018-08-10T17:26:44.828Z,0.45
2018-08-10T17:29:14.525Z,0.70
2018-08-10T17:31:44.280Z,0.55
2018-08-10T17:34:14.356Z,0.78
2018-08-10T17:36:44.050Z,0.70
2018-08-10T17:39:14.543Z,0.68
2018-08-10T17:41:44.531Z,0.70
2018-08-10T17:44:14.628Z,0.82
2018-08-10T17:46:44.777Z,1.35
2018-08-10T17:49:14.670Z,1.20
2018-08-10T17:51:45.027Z,1.37
2018-08-10T17:54:14.808Z,0.90
2018-08-10T17:56:44.874Z,0.60
2018-08-10T17:59:15.611Z,0.80
2018-08-10T18:01:45.474Z,0.90
2018-08-10T18:04:15.158Z,1.10
2018-08-10T18:06:45.027Z,0.55
2018-08-10T18:09:15.487Z,0.60
2018-08-10T18:11:45.142Z,1.02
2018-08-10T18:14:15.194Z,1.57
2018-08-10T18:16:44.894Z,0.85
2018-08-10T18:19:15.024Z,1.20
2018-08-10T18:21:45.171Z,0.70
2018-08-10T18:24:14.906Z,0.47
2018-08-10T18:26:44.587Z,0.68
2018-08-10T18:29:15.325Z,0.53
2018-08-10T18:31:45.027Z,1.25
2018-08-10T18:34:14.869Z,0.60
2018-08-10T18:36:44.695Z,0.57
2018-08-10T18:39:14.835Z,0.82
2018-08-10T18:41:45.007Z,0.90
2018-08-10T18:44:14.670Z,0.80
2018-08-10T18:46:44.327Z,1.07
2018-08-10T18:49:14.442Z,0.90
2018-08-10T18:51:44.106Z,1.47
2018-08-10T18:54:14.517Z,1.40
2018-08-10T18:56:44.230Z,1.25
2018-08-10T18:59:13.989Z,1.30
2018-08-10T19:01:43.743Z,1.05
2018-08-10T19:04:13.807Z,1.37
2018-08-10T19:06:43.599Z,1.12
2018-08-10T19:09:14.047Z,0.80
2018-08-10T19:11:43.818Z,0.80
2018-08-10T19:14:14.410Z,0.78
2018-08-10T19:16:45.086Z,1.22
2018-08-10T19:19:15.028Z,1.00
2018-08-10T19:21:44.702Z,1.20
2018-08-10T19:24:14.723Z,1.05
2018-08-10T19:26:44.434Z,1.52
2018-08-10T19:29:14.151Z,1.10
2018-08-10T19:31:43.866Z,1.10
2018-08-10T19:34:13.563Z,1.00
2018-08-10T19:36:43.652Z,1.10
2018-08-10T19:39:13.638Z,0.95
2018-08-10T19:41:43.439Z,1.20
2018-08-10T19:44:13.154Z,1.10
2018-08-10T19:46:42.952Z,1.10
2018-08-10T19:49:13.183Z,1.10
2018-08-10T19:51:42.870Z,1.10
2018-08-10T19:54:12.520Z,1.20
2018-08-10T19:56:42.191Z,1.32
2018-08-10T19:59:11.907Z,1.37
2018-08-10T20:01:41.575Z,1.50
2018-08-10T20:04:11.310Z,1.37
2018-08-10T20:06:40.972Z,1.37
2018-08-10T20:09:12.466Z,1.30
2018-08-10T20:11:42.181Z,1.17
2018-08-10T20:14:11.894Z,1.22
2018-08-10T20:16:41.595Z,1.22
2018-08-10T20:19:11.259Z,1.40
2018-08-10T20:21:40.906Z,1.30
2018-08-10T20:24:10.588Z,1.60
2018-08-10T20:26:40.303Z,1.12
2018-08-10T20:29:09.982Z,1.50
2018-08-10T20:31:39.711Z,1.37
2018-08-10T20:34:09.452Z,1.30
2018-08-10T20:36:39.208Z,1.52
2018-08-10T20:39:10.438Z,1.50
2018-08-10T20:41:40.262Z,1.40
2018-08-10T20:44:09.999Z,1.27
2018-08-10T20:46:40.478Z,1.47
2018-08-10T20:49:10.267Z,1.40
2018-08-10T20:51:40.308Z,1.30
2018-08-10T20:54:10.001Z,1.30
2018-08-10T20:56:39.730Z,1.50
2018-08-10T20:59:09.457Z,1.72
2018-08-10T21:01:39.506Z,1.70
2018-08-10T21:04:09.359Z,2.60
2018-08-10T21:06:39.091Z,1.50
2018-08-10T21:09:11.438Z,1.47
2018-08-10T21:11:41.984Z,1.40
2018-08-10T21:14:11.710Z,1.30
2018-08-10T21:16:41.398Z,1.90
2018-08-10T21:19:11.170Z,1.60
2018-08-10T21:21:41.462Z,2.08
2018-08-10T21:24:11.193Z,1.90
2018-08-10T21:26:40.979Z,1.80
2018-08-10T21:29:10.877Z,1.92
2018-08-10T21:31:40.575Z,1.70
2018-08-10T21:34:10.287Z,1.98
2018-08-10T21:36:40.035Z,1.67
2018-08-10T21:39:11.418Z,1.70
2018-08-10T21:41:41.183Z,1.90
2018-08-10T21:44:10.899Z,1.62
2018-08-10T21:46:40.602Z,1.92
2018-08-10T21:49:10.311Z,1.70
2018-08-10T21:51:40.059Z,1.60
2018-08-10T21:54:10.144Z,1.80
2018-08-10T21:56:39.835Z,1.72
2018-08-10T21:59:09.548Z,1.67
2018-08-10T22:01:39.450Z,1.92
2018-08-10T22:04:09.183Z,1.77
2018-08-10T22:06:38.873Z,1.70
2018-08-10T22:09:09.156Z,1.65
2018-08-10T22:11:38.859Z,1.80
2018-08-10T22:14:13.853Z,1.80
2018-08-10T22:16:48.871Z,1.80
2018-08-10T22:19:18.746Z,1.80
2018-08-10T22:21:48.723Z,2.00
2018-08-10T22:24:18.459Z,1.72
2018-08-10T22:26:48.174Z,1.82
2018-08-10T22:29:17.881Z,1.60
2018-08-10T22:31:47.566Z,1.70
2018-08-10T22:34:17.274Z,1.20
2018-08-10T22:36:47.031Z,1.47
2018-08-10T22:39:16.782Z,1.70
2018-08-10T22:41:46.450Z,1.45
2018-08-10T22:44:16.188Z,1.40
2018-08-10T22:46:45.927Z,1.55
2018-08-10T22:49:15.622Z,1.42
2018-08-10T22:51:45.239Z,1.60
2018-08-10T22:54:14.930Z,1.45
2018-08-10T22:56:45.302Z,1.70
2018-08-10T22:59:14.974Z,1.22
2018-08-10T23:01:44.954Z,1.57
2018-08-10T23:04:14.637Z,1.60
2018-08-10T23:06:44.299Z,1.50
2018-08-10T23:09:14.314Z,1.52
2018-08-10T23:11:44.433Z,1.50
2018-08-10T23:14:14.470Z,1.40
2018-08-10T23:16:44.832Z,2.70
2018-08-10T23:19:14.506Z,1.52
2018-08-10T23:21:44.139Z,1.60
2018-08-10T23:24:13.830Z,1.32
2018-08-10T23:26:43.480Z,1.50
2018-08-10T23:29:13.174Z,1.50
2018-08-10T23:31:43.158Z,1.40
2018-08-10T23:34:12.852Z,1.50
2018-08-10T23:36:44.564Z,1.32
2018-08-10T23:39:14.286Z,1.60
2018-08-10T23:41:43.927Z,1.40
2018-08-10T23:44:13.667Z,1.70
2018-08-10T23:46:43.650Z,1.40
2018-08-10T23:49:13.322Z,1.40
2018-08-10T23:51:43.050Z,1.42
2018-08-10T23:54:12.823Z,1.25
2018-08-10T23:56:42.511Z,1.32
2018-08-10T23:59:12.215Z,1.40
